sensor_id;sensor_type;location;lat;lon;timestamp;P1;durP1;ratioP1;P2;durP2;ratioP2
45762;SDS011;37512;52.408;13.356;2023-10-31T00:00:35;8.30;;;4.80;;
45762;SDS011;37512;52.408;13.356;2023-10-31T00:04:39;10.20;;;4.97;;
45762;SDS011;37512;52.408;13.356;2023-10-31T00:08:41;6.13;;;4.30;;
45762;SDS011;37512;52.408;13.356;2023-10-31T00:12:43;9.77;;;5.07;;
45762;SDS011;37512;52.408;13.356;2023-10-31T00:16:49;12.77;;;4.82;;
45762;SDS011;37512;52.408;13.356;2023-10-31T00:20:52;7.47;;;4.85;;
45762;SDS011;37512;52.408;13.356;2023-10-31T00:24:53;11.18;;;4.85;;
45762;SDS011;37512;52.408;13.356;2023-10-31T00:28:57;7.90;;;4.53;;
45762;SDS011;37512;52.408;13.356;2023-10-31T00:33:04;8.18;;;4.07;;
45762;SDS011;37512;52.408;13.356;2023-10-31T00:37:09;9.27;;;4.40;;
45762;SDS011;37512;52.408;13.356;2023-10-31T00:41:11;11.23;;;5.25;;
45762;SDS011;37512;52.408;13.356;2023-10-31T00:45:13;7.70;;;4.65;;
45762;SDS011;37512;52.408;13.356;2023-10-31T00:49:16;6.63;;;4.68;;
45762;SDS011;37512;52.408;13.356;2023-10-31T00:53:33;5.43;;;4.25;;
45762;SDS011;37512;52.408;13.356;2023-10-31T00:57:36;8.15;;;4.97;;
45762;SDS011;37512;52.408;13.356;2023-10-31T01:01:42;9.60;;;4.65;;
45762;SDS011;37512;52.408;13.356;2023-10-31T01:05:45;9.48;;;5.28;;
45762;SDS011;37512;52.408;13.356;2023-10-31T01:09:48;11.45;;;5.28;;
45762;SDS011;37512;52.408;13.356;2023-10-31T01:13:51;11.65;;;4.88;;
45762;SDS011;37512;52.408;13.356;2023-10-31T01:17:52;9.48;;;4.95;;
45762;SDS011;37512;52.408;13.356;2023-10-31T01:21:57;7.55;;;4.90;;
45762;SDS011;37512;52.408;13.356;2023-10-31T01:26:01;10.35;;;5.30;;
45762;SDS011;37512;52.408;13.356;2023-10-31T01:30:06;8.52;;;5.18;;
45762;SDS011;37512;52.408;13.356;2023-10-31T01:34:15;9.63;;;5.40;;
45762;SDS011;37512;52.408;13.356;2023-10-31T01:38:21;11.32;;;5.78;;
45762;SDS011;37512;52.408;13.356;2023-10-31T01:42:23;8.40;;;5.45;;
45762;SDS011;37512;52.408;13.356;2023-10-31T01:46:29;14.32;;;6.20;;
45762;SDS011;37512;52.408;13.356;2023-10-31T01:50:31;11.73;;;5.70;;
45762;SDS011;37512;52.408;13.356;2023-10-31T01:54:33;14.43;;;6.20;;
45762;SDS011;37512;52.408;13.356;2023-10-31T01:58:39;11.93;;;5.80;;
45762;SDS011;37512;52.408;13.356;2023-10-31T02:02:45;8.93;;;5.18;;
45762;SDS011;37512;52.408;13.356;2023-10-31T02:06:53;14.07;;;6.10;;
45762;SDS011;37512;52.408;13.356;2023-10-31T02:11:22;11.40;;;6.50;;
45762;SDS011;37512;52.408;13.356;2023-10-31T02:15:27;9.13;;;5.60;;
45762;SDS011;37512;52.408;13.356;2023-10-31T02:19:30;11.38;;;6.15;;
45762;SDS011;37512;52.408;13.356;2023-10-31T02:23:40;10.98;;;6.32;;
45762;SDS011;37512;52.408;13.356;2023-10-31T02:27:42;9.73;;;5.50;;
45762;SDS011;37512;52.408;13.356;2023-10-31T02:31:44;14.00;;;6.38;;
45762;SDS011;37512;52.408;13.356;2023-10-31T02:35:47;12.48;;;5.75;;
45762;SDS011;37512;52.408;13.356;2023-10-31T02:39:49;10.93;;;6.55;;
45762;SDS011;37512;52.408;13.356;2023-10-31T02:43:52;11.82;;;6.13;;
45762;SDS011;37512;52.408;13.356;2023-10-31T02:48:08;11.23;;;6.25;;
45762;SDS011;37512;52.408;13.356;2023-10-31T02:52:13;15.15;;;5.65;;
45762;SDS011;37512;52.408;13.356;2023-10-31T02:56:16;14.73;;;6.30;;
45762;SDS011;37512;52.408;13.356;2023-10-31T03:00:19;9.95;;;6.28;;
45762;SDS011;37512;52.408;13.356;2023-10-31T03:04:23;9.63;;;6.60;;
45762;SDS011;37512;52.408;13.356;2023-10-31T03:08:25;16.98;;;6.72;;
45762;SDS011;37512;52.408;13.356;2023-10-31T03:12:29;12.57;;;6.28;;
45762;SDS011;37512;52.408;13.356;2023-10-31T03:16:31;13.68;;;6.47;;
45762;SDS011;37512;52.408;13.356;2023-10-31T03:20:47;13.55;;;6.93;;
45762;SDS011;37512;52.408;13.356;2023-10-31T03:24:49;16.50;;;6.32;;
45762;SDS011;37512;52.408;13.356;2023-10-31T03:28:57;11.10;;;7.03;;
45762;SDS011;37512;52.408;13.356;2023-10-31T03:32:59;12.88;;;7.13;;
45762;SDS011;37512;52.408;13.356;2023-10-31T03:37:02;9.15;;;6.82;;
45762;SDS011;37512;52.408;13.356;2023-10-31T03:41:04;15.23;;;6.80;;
45762;SDS011;37512;52.408;13.356;2023-10-31T03:45:07;10.70;;;5.88;;
45762;SDS011;37512;52.408;13.356;2023-10-31T03:49:13;15.00;;;7.22;;
45762;SDS011;37512;52.408;13.356;2023-10-31T03:53:15;14.25;;;7.00;;
45762;SDS011;37512;52.408;13.356;2023-10-31T03:57:17;11.88;;;6.82;;
45762;SDS011;37512;52.408;13.356;2023-10-31T04:01:34;13.10;;;7.20;;
45762;SDS011;37512;52.408;13.356;2023-10-31T04:05:38;15.25;;;7.68;;
45762;SDS011;37512;52.408;13.356;2023-10-31T04:09:43;11.95;;;6.72;;
45762;SDS011;37512;52.408;13.356;2023-10-31T04:13:47;12.57;;;7.28;;
45762;SDS011;37512;52.408;13.356;2023-10-31T04:17:49;9.05;;;7.15;;
45762;SDS011;37512;52.408;13.356;2023-10-31T04:21:52;10.93;;;7.05;;
45762;SDS011;37512;52.408;13.356;2023-10-31T04:26:05;10.63;;;6.95;;
45762;SDS011;37512;52.408;13.356;2023-10-31T04:30:07;10.85;;;7.22;;
45762;SDS011;37512;52.408;13.356;2023-10-31T04:34:12;11.65;;;6.82;;
45762;SDS011;37512;52.408;13.356;2023-10-31T04:38:14;12.32;;;7.45;;
45762;SDS011;37512;52.408;13.356;2023-10-31T04:42:16;12.80;;;7.68;;
45762;SDS011;37512;52.408;13.356;2023-10-31T04:46:22;12.13;;;8.88;;
45762;SDS011;37512;52.408;13.356;2023-10-31T04:50:26;14.55;;;7.80;;
45762;SDS011;37512;52.408;13.356;2023-10-31T04:54:27;12.90;;;7.95;;
45762;SDS011;37512;52.408;13.356;2023-10-31T04:58:29;13.07;;;8.13;;
45762;SDS011;37512;52.408;13.356;2023-10-31T05:02:33;10.20;;;7.82;;
45762;SDS011;37512;52.408;13.356;2023-10-31T05:06:36;12.73;;;8.15;;
45762;SDS011;37512;52.408;13.356;2023-10-31T05:10:37;10.98;;;8.25;;
45762;SDS011;37512;52.408;13.356;2023-10-31T05:14:40;15.70;;;8.85;;
45762;SDS011;37512;52.408;13.356;2023-10-31T05:18:44;14.70;;;8.02;;
45762;SDS011;37512;52.408;13.356;2023-10-31T05:22:46;13.50;;;8.32;;
45762;SDS011;37512;52.408;13.356;2023-10-31T05:26:48;11.93;;;8.30;;
45762;SDS011;37512;52.408;13.356;2023-10-31T05:30:50;12.27;;;8.55;;
45762;SDS011;37512;52.408;13.356;2023-10-31T05:34:51;12.50;;;8.20;;
45762;SDS011;37512;52.408;13.356;2023-10-31T05:38:54;11.40;;;7.90;;
45762;SDS011;37512;52.408;13.356;2023-10-31T05:42:55;10.95;;;7.18;;
45762;SDS011;37512;52.408;13.356;2023-10-31T05:47:02;9.63;;;7.35;;
45762;SDS011;37512;52.408;13.356;2023-10-31T05:51:14;8.85;;;6.78;;
45762;SDS011;37512;52.408;13.356;2023-10-31T05:55:17;9.73;;;5.60;;
45762;SDS011;37512;52.408;13.356;2023-10-31T05:59:19;7.13;;;5.88;;
45762;SDS011;37512;52.408;13.356;2023-10-31T06:03:22;8.73;;;6.65;;
45762;SDS011;37512;52.408;13.356;2023-10-31T06:07:24;9.90;;;6.88;;
45762;SDS011;37512;52.408;13.356;2023-10-31T06:11:26;9.95;;;7.88;;
45762;SDS011;37512;52.408;13.356;2023-10-31T06:15:28;10.65;;;7.50;;
45762;SDS011;37512;52.408;13.356;2023-10-31T06:19:34;9.25;;;7.07;;
45762;SDS011;37512;52.408;13.356;2023-10-31T06:23:37;9.35;;;7.47;;
45762;SDS011;37512;52.408;13.356;2023-10-31T06:27:42;11.52;;;7.05;;
45762;SDS011;37512;52.408;13.356;2023-10-31T06:31:43;11.02;;;7.40;;
45762;SDS011;37512;52.408;13.356;2023-10-31T06:35:45;11.15;;;7.35;;
45762;SDS011;37512;52.408;13.356;2023-10-31T06:39:47;10.45;;;7.45;;
45762;SDS011;37512;52.408;13.356;2023-10-31T06:43:48;11.73;;;7.75;;
45762;SDS011;37512;52.408;13.356;2023-10-31T06:47:50;10.02;;;6.68;;
45762;SDS011;37512;52.408;13.356;2023-10-31T06:51:52;8.65;;;6.93;;
45762;SDS011;37512;52.408;13.356;2023-10-31T06:55:54;9.48;;;5.97;;
45762;SDS011;37512;52.408;13.356;2023-10-31T06:59:56;9.50;;;6.25;;
45762;SDS011;37512;52.408;13.356;2023-10-31T07:03:58;8.13;;;6.10;;
45762;SDS011;37512;52.408;13.356;2023-10-31T07:08:01;8.70;;;5.88;;
45762;SDS011;37512;52.408;13.356;2023-10-31T07:12:05;8.35;;;5.35;;
45762;SDS011;37512;52.408;13.356;2023-10-31T07:16:07;5.28;;;4.38;;
45762;SDS011;37512;52.408;13.356;2023-10-31T07:20:09;8.20;;;5.25;;
45762;SDS011;37512;52.408;13.356;2023-10-31T07:24:22;5.20;;;3.72;;
45762;SDS011;37512;52.408;13.356;2023-10-31T07:28:24;5.80;;;3.38;;
45762;SDS011;37512;52.408;13.356;2023-10-31T07:32:27;2.20;;;2.00;;
45762;SDS011;37512;52.408;13.356;2023-10-31T07:36:29;2.28;;;1.70;;
45762;SDS011;37512;52.408;13.356;2023-10-31T07:40:33;1.65;;;1.05;;
45762;SDS011;37512;52.408;13.356;2023-10-31T07:44:37;2.40;;;1.38;;
45762;SDS011;37512;52.408;13.356;2023-10-31T07:48:45;1.20;;;0.98;;
45762;SDS011;37512;52.408;13.356;2023-10-31T07:52:47;1.25;;;0.90;;
45762;SDS011;37512;52.408;13.356;2023-10-31T07:56:51;1.63;;;1.20;;
45762;SDS011;37512;52.408;13.356;2023-10-31T08:00:53;5.90;;;1.77;;
45762;SDS011;37512;52.408;13.356;2023-10-31T08:04:54;2.00;;;1.42;;
45762;SDS011;37512;52.408;13.356;2023-10-31T08:08:57;1.48;;;1.08;;
45762;SDS011;37512;52.408;13.356;2023-10-31T08:13:00;3.13;;;1.08;;
45762;SDS011;37512;52.408;13.356;2023-10-31T08:17:05;2.85;;;0.93;;
45762;SDS011;37512;52.408;13.356;2023-10-31T08:21:10;1.00;;;0.80;;
45762;SDS011;37512;52.408;13.356;2023-10-31T08:25:13;2.95;;;0.80;;
45762;SDS011;37512;52.408;13.356;2023-10-31T08:29:15;3.17;;;0.68;;
45762;SDS011;37512;52.408;13.356;2023-10-31T08:33:18;1.10;;;0.88;;
45762;SDS011;37512;52.408;13.356;2023-10-31T08:37:23;0.95;;;0.70;;
45762;SDS011;37512;52.408;13.356;2023-10-31T08:41:25;1.45;;;0.70;;
45762;SDS011;37512;52.408;13.356;2023-10-31T08:45:35;2.50;;;0.98;;
45762;SDS011;37512;52.408;13.356;2023-10-31T08:49:37;1.40;;;0.70;;
45762;SDS011;37512;52.408;13.356;2023-10-31T08:53:40;1.60;;;0.77;;
45762;SDS011;37512;52.408;13.356;2023-10-31T08:57:42;1.38;;;0.70;;
45762;SDS011;37512;52.408;13.356;2023-10-31T09:01:44;1.00;;;0.50;;
45762;SDS011;37512;52.408;13.356;2023-10-31T09:05:47;0.98;;;0.68;;
45762;SDS011;37512;52.408;13.356;2023-10-31T09:09:53;0.40;;;0.40;;
45762;SDS011;37512;52.408;13.356;2023-10-31T09:13:59;1.30;;;0.60;;
45762;SDS011;37512;52.408;13.356;2023-10-31T09:18:01;1.30;;;1.02;;
45762;SDS011;37512;52.408;13.356;2023-10-31T09:22:03;2.03;;;0.80;;
45762;SDS011;37512;52.408;13.356;2023-10-31T09:26:05;1.05;;;0.82;;
45762;SDS011;37512;52.408;13.356;2023-10-31T09:30:09;1.35;;;1.00;;
45762;SDS011;37512;52.408;13.356;2023-10-31T09:34:20;1.17;;;0.90;;
45762;SDS011;37512;52.408;13.356;2023-10-31T09:38:31;1.27;;;0.90;;
45762;SDS011;37512;52.408;13.356;2023-10-31T09:42:32;0.60;;;0.60;;
45762;SDS011;37512;52.408;13.356;2023-10-31T09:46:35;2.67;;;1.40;;
45762;SDS011;37512;52.408;13.356;2023-10-31T09:50:38;2.08;;;0.80;;
45762;SDS011;37512;52.408;13.356;2023-10-31T09:54:41;4.22;;;1.02;;
45762;SDS011;37512;52.408;13.356;2023-10-31T09:58:47;4.30;;;1.00;;
45762;SDS011;37512;52.408;13.356;2023-10-31T10:02:49;1.30;;;1.10;;
45762;SDS011;37512;52.408;13.356;2023-10-31T10:06:58;0.88;;;0.77;;
45762;SDS011;37512;52.408;13.356;2023-10-31T10:11:01;1.65;;;1.00;;
45762;SDS011;37512;52.408;13.356;2023-10-31T10:15:03;2.67;;;1.05;;
45762;SDS011;37512;52.408;13.356;2023-10-31T10:19:16;1.63;;;1.20;;
45762;SDS011;37512;52.408;13.356;2023-10-31T10:27:28;1.27;;;0.90;;
45762;SDS011;37512;52.408;13.356;2023-10-31T10:31:30;1.73;;;1.10;;
45762;SDS011;37512;52.408;13.356;2023-10-31T10:35:32;1.40;;;1.10;;
45762;SDS011;37512;52.408;13.356;2023-10-31T10:39:35;1.60;;;1.30;;
45762;SDS011;37512;52.408;13.356;2023-10-31T10:43:40;3.13;;;1.60;;
45762;SDS011;37512;52.408;13.356;2023-10-31T10:47:47;1.80;;;1.20;;
45762;SDS011;37512;52.408;13.356;2023-10-31T10:51:53;2.03;;;1.27;;
45762;SDS011;37512;52.408;13.356;2023-10-31T10:56:03;3.05;;;1.65;;
45762;SDS011;37512;52.408;13.356;2023-10-31T11:00:14;2.25;;;1.75;;
45762;SDS011;37512;52.408;13.356;2023-10-31T11:04:16;2.10;;;1.45;;
45762;SDS011;37512;52.408;13.356;2023-10-31T11:08:21;2.00;;;1.40;;
45762;SDS011;37512;52.408;13.356;2023-10-31T11:12:26;1.30;;;1.10;;
45762;SDS011;37512;52.408;13.356;2023-10-31T11:20:54;2.20;;;1.45;;
45762;SDS011;37512;52.408;13.356;2023-10-31T11:24:56;1.58;;;1.13;;
45762;SDS011;37512;52.408;13.356;2023-10-31T11:29:07;2.55;;;1.30;;
45762;SDS011;37512;52.408;13.356;2023-10-31T11:33:14;2.05;;;1.20;;
45762;SDS011;37512;52.408;13.356;2023-10-31T11:41:32;3.63;;;1.33;;
45762;SDS011;37512;52.408;13.356;2023-10-31T11:45:36;1.55;;;1.23;;
45762;SDS011;37512;52.408;13.356;2023-10-31T11:49:48;1.05;;;0.82;;
45762;SDS011;37512;52.408;13.356;2023-10-31T11:53:50;1.58;;;0.75;;
45762;SDS011;37512;52.408;13.356;2023-10-31T11:57:54;1.45;;;1.00;;
45762;SDS011;37512;52.408;13.356;2023-10-31T12:01:56;4.13;;;0.93;;
45762;SDS011;37512;52.408;13.356;2023-10-31T12:05:58;1.83;;;1.02;;
45762;SDS011;37512;52.408;13.356;2023-10-31T12:10:03;1.60;;;1.15;;
45762;SDS011;37512;52.408;13.356;2023-10-31T12:14:06;1.55;;;1.10;;
45762;SDS011;37512;52.408;13.356;2023-10-31T12:18:10;1.23;;;0.73;;
45762;SDS011;37512;52.408;13.356;2023-10-31T12:22:15;1.40;;;0.90;;
45762;SDS011;37512;52.408;13.356;2023-10-31T12:26:23;3.53;;;0.60;;
45762;SDS011;37512;52.408;13.356;2023-10-31T12:30:28;1.40;;;0.93;;
45762;SDS011;37512;52.408;13.356;2023-10-31T12:34:29;2.50;;;1.02;;
45762;SDS011;37512;52.408;13.356;2023-10-31T12:38:31;0.47;;;0.47;;
45762;SDS011;37512;52.408;13.356;2023-10-31T12:42:33;0.68;;;0.52;;
45762;SDS011;37512;52.408;13.356;2023-10-31T12:46:35;0.55;;;0.55;;
45762;SDS011;37512;52.408;13.356;2023-10-31T12:50:39;0.82;;;0.63;;
45762;SDS011;37512;52.408;13.356;2023-10-31T12:54:41;0.93;;;0.60;;
45762;SDS011;37512;52.408;13.356;2023-10-31T12:58:43;0.70;;;0.63;;
45762;SDS011;37512;52.408;13.356;2023-10-31T13:02:45;0.95;;;0.75;;
45762;SDS011;37512;52.408;13.356;2023-10-31T13:11:04;1.50;;;0.70;;
45762;SDS011;37512;52.408;13.356;2023-10-31T13:15:06;0.70;;;0.70;;
45762;SDS011;37512;52.408;13.356;2023-10-31T13:19:08;0.82;;;0.60;;
45762;SDS011;37512;52.408;13.356;2023-10-31T13:23:09;0.50;;;0.50;;
45762;SDS011;37512;52.408;13.356;2023-10-31T13:27:11;0.80;;;0.60;;
45762;SDS011;37512;52.408;13.356;2023-10-31T13:31:17;1.00;;;0.63;;
45762;SDS011;37512;52.408;13.356;2023-10-31T13:35:19;2.25;;;1.00;;
45762;SDS011;37512;52.408;13.356;2023-10-31T13:39:21;0.60;;;0.52;;
45762;SDS011;37512;52.408;13.356;2023-10-31T13:43:23;0.90;;;0.68;;
45762;SDS011;37512;52.408;13.356;2023-10-31T13:47:25;0.60;;;0.60;;
45762;SDS011;37512;52.408;13.356;2023-10-31T13:51:26;5.95;;;0.90;;
45762;SDS011;37512;52.408;13.356;2023-10-31T13:55:28;1.20;;;0.68;;
45762;SDS011;37512;52.408;13.356;2023-10-31T13:59:36;0.88;;;0.60;;
45762;SDS011;37512;52.408;13.356;2023-10-31T14:03:38;0.70;;;0.50;;
45762;SDS011;37512;52.408;13.356;2023-10-31T14:07:40;1.85;;;0.77;;
45762;SDS011;37512;52.408;13.356;2023-10-31T14:11:41;1.20;;;0.93;;
45762;SDS011;37512;52.408;13.356;2023-10-31T14:15:43;0.63;;;0.57;;
45762;SDS011;37512;52.408;13.356;2023-10-31T14:19:45;4.32;;;0.80;;
45762;SDS011;37512;52.408;13.356;2023-10-31T14:23:47;2.45;;;1.15;;
45762;SDS011;37512;52.408;13.356;2023-10-31T14:28:04;1.02;;;0.73;;
45762;SDS011;37512;52.408;13.356;2023-10-31T14:32:07;2.90;;;0.88;;
45762;SDS011;37512;52.408;13.356;2023-10-31T14:36:10;1.20;;;0.90;;
45762;SDS011;37512;52.408;13.356;2023-10-31T14:40:14;2.00;;;0.85;;
45762;SDS011;37512;52.408;13.356;2023-10-31T14:44:15;1.45;;;0.60;;
45762;SDS011;37512;52.408;13.356;2023-10-31T14:48:17;0.95;;;0.70;;
45762;SDS011;37512;52.408;13.356;2023-10-31T14:52:18;1.20;;;0.80;;
45762;SDS011;37512;52.408;13.356;2023-10-31T14:56:20;2.33;;;0.80;;
45762;SDS011;37512;52.408;13.356;2023-10-31T15:00:23;2.92;;;1.75;;
45762;SDS011;37512;52.408;13.356;2023-10-31T15:04:25;1.13;;;0.80;;
45762;SDS011;37512;52.408;13.356;2023-10-31T15:08:27;3.15;;;1.10;;
45762;SDS011;37512;52.408;13.356;2023-10-31T15:12:28;1.80;;;1.05;;
45762;SDS011;37512;52.408;13.356;2023-10-31T15:16:30;1.55;;;1.20;;
45762;SDS011;37512;52.408;13.356;2023-10-31T15:20:32;1.50;;;1.10;;
45762;SDS011;37512;52.408;13.356;2023-10-31T15:24:34;2.22;;;1.52;;
45762;SDS011;37512;52.408;13.356;2023-10-31T15:28:36;1.75;;;1.60;;
45762;SDS011;37512;52.408;13.356;2023-10-31T15:32:38;6.63;;;1.40;;
45762;SDS011;37512;52.408;13.356;2023-10-31T15:36:40;3.10;;;1.83;;
45762;SDS011;37512;52.408;13.356;2023-10-31T15:40:42;4.95;;;1.80;;
45762;SDS011;37512;52.408;13.356;2023-10-31T15:44:44;3.47;;;1.80;;
45762;SDS011;37512;52.408;13.356;2023-10-31T15:48:45;3.28;;;2.00;;
45762;SDS011;37512;52.408;13.356;2023-10-31T15:52:47;4.10;;;2.10;;
45762;SDS011;37512;52.408;13.356;2023-10-31T15:56:49;3.55;;;1.98;;
45762;SDS011;37512;52.408;13.356;2023-10-31T16:00:51;5.20;;;2.17;;
45762;SDS011;37512;52.408;13.356;2023-10-31T16:04:54;2.50;;;2.13;;
45762;SDS011;37512;52.408;13.356;2023-10-31T16:08:55;3.88;;;1.88;;
45762;SDS011;37512;52.408;13.356;2023-10-31T16:12:57;4.25;;;2.47;;
45762;SDS011;37512;52.408;13.356;2023-10-31T16:16:58;3.10;;;2.65;;
45762;SDS011;37512;52.408;13.356;2023-10-31T16:21:00;3.17;;;2.65;;
45762;SDS011;37512;52.408;13.356;2023-10-31T16:25:02;4.35;;;3.35;;
45762;SDS011;37512;52.408;13.356;2023-10-31T16:29:04;4.88;;;3.00;;
45762;SDS011;37512;52.408;13.356;2023-10-31T16:33:07;7.10;;;3.65;;
45762;SDS011;37512;52.408;13.356;2023-10-31T16:37:09;5.72;;;3.78;;
45762;SDS011;37512;52.408;13.356;2023-10-31T16:41:11;3.97;;;3.47;;
45762;SDS011;37512;52.408;13.356;2023-10-31T16:45:14;4.63;;;3.63;;
45762;SDS011;37512;52.408;13.356;2023-10-31T16:49:15;6.10;;;4.20;;
45762;SDS011;37512;52.408;13.356;2023-10-31T16:53:18;6.50;;;4.72;;
45762;SDS011;37512;52.408;13.356;2023-10-31T16:57:20;7.47;;;4.10;;
45762;SDS011;37512;52.408;13.356;2023-10-31T17:01:21;5.57;;;4.40;;
45762;SDS011;37512;52.408;13.356;2023-10-31T17:05:23;6.75;;;3.92;;
45762;SDS011;37512;52.408;13.356;2023-10-31T17:09:25;4.47;;;3.58;;
45762;SDS011;37512;52.408;13.356;2023-10-31T17:13:26;5.15;;;3.85;;
45762;SDS011;37512;52.408;13.356;2023-10-31T17:17:28;5.78;;;3.92;;
45762;SDS011;37512;52.408;13.356;2023-10-31T17:21:29;5.93;;;4.05;;
45762;SDS011;37512;52.408;13.356;2023-10-31T17:25:31;5.95;;;4.38;;
45762;SDS011;37512;52.408;13.356;2023-10-31T17:29:33;7.68;;;5.47;;
45762;SDS011;37512;52.408;13.356;2023-10-31T17:33:35;7.65;;;6.22;;
45762;SDS011;37512;52.408;13.356;2023-10-31T17:37:37;10.48;;;6.70;;
45762;SDS011;37512;52.408;13.356;2023-10-31T17:41:39;8.75;;;7.03;;
45762;SDS011;37512;52.408;13.356;2023-10-31T17:45:41;8.68;;;6.00;;
45762;SDS011;37512;52.408;13.356;2023-10-31T17:49:42;6.35;;;5.18;;
45762;SDS011;37512;52.408;13.356;2023-10-31T17:53:44;6.38;;;4.10;;
45762;SDS011;37512;52.408;13.356;2023-10-31T17:57:47;6.47;;;4.00;;
45762;SDS011;37512;52.408;13.356;2023-10-31T18:01:49;7.13;;;3.97;;
45762;SDS011;37512;52.408;13.356;2023-10-31T18:05:54;7.75;;;3.65;;
45762;SDS011;37512;52.408;13.356;2023-10-31T18:09:56;6.93;;;3.30;;
45762;SDS011;37512;52.408;13.356;2023-10-31T18:13:58;6.28;;;4.57;;
45762;SDS011;37512;52.408;13.356;2023-10-31T18:17:59;5.53;;;3.70;;
45762;SDS011;37512;52.408;13.356;2023-10-31T18:22:01;11.27;;;3.85;;
45762;SDS011;37512;52.408;13.356;2023-10-31T18:26:03;5.05;;;3.25;;
45762;SDS011;37512;52.408;13.356;2023-10-31T18:30:06;6.60;;;3.00;;
45762;SDS011;37512;52.408;13.356;2023-10-31T18:34:09;4.55;;;2.97;;
45762;SDS011;37512;52.408;13.356;2023-10-31T18:38:11;3.00;;;2.20;;
45762;SDS011;37512;52.408;13.356;2023-10-31T18:42:13;5.13;;;3.65;;
45762;SDS011;37512;52.408;13.356;2023-10-31T18:46:15;5.22;;;2.50;;
45762;SDS011;37512;52.408;13.356;2023-10-31T18:50:17;5.13;;;3.20;;
45762;SDS011;37512;52.408;13.356;2023-10-31T18:54:18;4.07;;;2.58;;
45762;SDS011;37512;52.408;13.356;2023-10-31T18:58:21;3.25;;;2.72;;
45762;SDS011;37512;52.408;13.356;2023-10-31T19:02:23;3.33;;;2.33;;
45762;SDS011;37512;52.408;13.356;2023-10-31T19:06:26;3.47;;;3.00;;
45762;SDS011;37512;52.408;13.356;2023-10-31T19:10:27;4.60;;;3.13;;
45762;SDS011;37512;52.408;13.356;2023-10-31T19:14:29;3.38;;;2.65;;
45762;SDS011;37512;52.408;13.356;2023-10-31T19:18:32;4.95;;;3.17;;
45762;SDS011;37512;52.408;13.356;2023-10-31T19:22:34;3.03;;;2.53;;
45762;SDS011;37512;52.408;13.356;2023-10-31T19:26:36;4.10;;;1.92;;
45762;SDS011;37512;52.408;13.356;2023-10-31T19:30:38;1.58;;;1.30;;
45762;SDS011;37512;52.408;13.356;2023-10-31T19:34:41;2.63;;;1.85;;
45762;SDS011;37512;52.408;13.356;2023-10-31T19:38:43;3.63;;;1.70;;
45762;SDS011;37512;52.408;13.356;2023-10-31T19:42:45;1.05;;;0.85;;
45762;SDS011;37512;52.408;13.356;2023-10-31T19:46:47;1.83;;;1.10;;
45762;SDS011;37512;52.408;13.356;2023-10-31T19:50:50;2.20;;;0.90;;
45762;SDS011;37512;52.408;13.356;2023-10-31T19:54:51;3.65;;;0.85;;
45762;SDS011;37512;52.408;13.356;2023-10-31T19:58:53;2.97;;;0.90;;
45762;SDS011;37512;52.408;13.356;2023-10-31T20:02:54;1.75;;;0.57;;
45762;SDS011;37512;52.408;13.356;2023-10-31T20:06:56;1.98;;;0.73;;
45762;SDS011;37512;52.408;13.356;2023-10-31T20:10:58;1.50;;;0.80;;
45762;SDS011;37512;52.408;13.356;2023-10-31T20:14:59;1.20;;;0.70;;
45762;SDS011;37512;52.408;13.356;2023-10-31T20:19:02;1.15;;;0.75;;
45762;SDS011;37512;52.408;13.356;2023-10-31T20:23:06;1.38;;;0.80;;
45762;SDS011;37512;52.408;13.356;2023-10-31T20:27:08;4.97;;;1.13;;
45762;SDS011;37512;52.408;13.356;2023-10-31T20:31:09;0.98;;;0.63;;
45762;SDS011;37512;52.408;13.356;2023-10-31T20:35:12;4.63;;;1.10;;
45762;SDS011;37512;52.408;13.356;2023-10-31T20:39:13;3.53;;;1.10;;
45762;SDS011;37512;52.408;13.356;2023-10-31T20:43:17;1.30;;;0.70;;
45762;SDS011;37512;52.408;13.356;2023-10-31T20:47:18;1.27;;;0.98;;
45762;SDS011;37512;52.408;13.356;2023-10-31T20:51:20;2.88;;;0.80;;
45762;SDS011;37512;52.408;13.356;2023-10-31T20:55:21;3.58;;;0.80;;
45762;SDS011;37512;52.408;13.356;2023-10-31T20:59:23;2.20;;;1.42;;
45762;SDS011;37512;52.408;13.356;2023-10-31T21:03:25;1.63;;;1.05;;
45762;SDS011;37512;52.408;13.356;2023-10-31T21:07:28;2.75;;;1.08;;
45762;SDS011;37512;52.408;13.356;2023-10-31T21:11:38;3.33;;;1.00;;
45762;SDS011;37512;52.408;13.356;2023-10-31T21:15:39;3.17;;;1.35;;
45762;SDS011;37512;52.408;13.356;2023-10-31T21:19:41;1.38;;;0.70;;
45762;SDS011;37512;52.408;13.356;2023-10-31T21:23:42;2.83;;;0.90;;
45762;SDS011;37512;52.408;13.356;2023-10-31T21:27:44;2.42;;;0.90;;
45762;SDS011;37512;52.408;13.356;2023-10-31T21:31:50;5.45;;;1.10;;
45762;SDS011;37512;52.408;13.356;2023-10-31T21:35:53;1.70;;;0.95;;
45762;SDS011;37512;52.408;13.356;2023-10-31T21:39:54;2.42;;;1.40;;
45762;SDS011;37512;52.408;13.356;2023-10-31T21:43:56;2.55;;;1.00;;
45762;SDS011;37512;52.408;13.356;2023-10-31T21:47:57;2.10;;;1.20;;
45762;SDS011;37512;52.408;13.356;2023-10-31T21:51:59;2.97;;;1.08;;
45762;SDS011;37512;52.408;13.356;2023-10-31T21:56:01;5.90;;;1.63;;
45762;SDS011;37512;52.408;13.356;2023-10-31T22:00:03;3.58;;;2.38;;
45762;SDS011;37512;52.408;13.356;2023-10-31T22:04:05;2.35;;;1.58;;
45762;SDS011;37512;52.408;13.356;2023-10-31T22:08:07;1.27;;;0.90;;
45762;SDS011;37512;52.408;13.356;2023-10-31T22:12:09;2.47;;;1.00;;
45762;SDS011;37512;52.408;13.356;2023-10-31T22:16:11;2.33;;;1.33;;
45762;SDS011;37512;52.408;13.356;2023-10-31T22:20:13;3.03;;;1.40;;
45762;SDS011;37512;52.408;13.356;2023-10-31T22:24:14;3.30;;;1.00;;
45762;SDS011;37512;52.408;13.356;2023-10-31T22:28:16;2.08;;;1.10;;
45762;SDS011;37512;52.408;13.356;2023-10-31T22:32:18;3.03;;;1.00;;
45762;SDS011;37512;52.408;13.356;2023-10-31T22:36:19;1.77;;;1.08;;
45762;SDS011;37512;52.408;13.356;2023-10-31T22:40:21;2.33;;;1.15;;
45762;SDS011;37512;52.408;13.356;2023-10-31T22:44:23;3.25;;;1.63;;
45762;SDS011;37512;52.408;13.356;2023-10-31T22:48:25;2.30;;;1.20;;
45762;SDS011;37512;52.408;13.356;2023-10-31T22:52:27;1.77;;;1.25;;
45762;SDS011;37512;52.408;13.356;2023-10-31T22:56:28;4.20;;;1.40;;
45762;SDS011;37512;52.408;13.356;2023-10-31T23:00:31;1.98;;;0.80;;
45762;SDS011;37512;52.408;13.356;2023-10-31T23:04:35;2.22;;;1.10;;
45762;SDS011;37512;52.408;13.356;2023-10-31T23:08:36;1.48;;;0.82;;
45762;SDS011;37512;52.408;13.356;2023-10-31T23:12:38;1.13;;;0.80;;
45762;SDS011;37512;52.408;13.356;2023-10-31T23:16:40;2.03;;;0.93;;
45762;SDS011;37512;52.408;13.356;2023-10-31T23:20:42;1.65;;;0.90;;
45762;SDS011;37512;52.408;13.356;2023-10-31T23:24:43;1.80;;;0.90;;
45762;SDS011;37512;52.408;13.356;2023-10-31T23:28:45;3.38;;;1.10;;
45762;SDS011;37512;52.408;13.356;2023-10-31T23:32:46;1.40;;;0.90;;
45762;SDS011;37512;52.408;13.356;2023-10-31T23:36:48;2.88;;;1.00;;
45762;SDS011;37512;52.408;13.356;2023-10-31T23:40:50;3.40;;;1.23;;
45762;SDS011;37512;52.408;13.356;2023-10-31T23:44:52;8.27;;;1.30;;
45762;SDS011;37512;52.408;13.356;2023-10-31T23:48:53;1.50;;;1.02;;
45762;SDS011;37512;52.408;13.356;2023-10-31T23:52:55;4.95;;;1.02;;
45762;SDS011;37512;52.408;13.356;2023-10-31T23:56:57;1.10;;;0.80;;
